Strait of Georgia - south of Nanaimo: Past 24 Hour Conditions

 

Discovery Island

05:00 AM PDT 22 October 2014
This table is a summary of hourly weather conditions for the past 24 hours.
Date / Time
(PDT)
Wind(knots) Conditions Visibility(km) Pressure(kPa) Air tempC) Relative humidity(%) Dew pointC)
22 October 2014
5:00 SSE 25 N/A N/A 100.0 12 86 10
4:00 SSE 28 gust 35 N/A N/A 100.0 12 89 10
3:00 SSE 36 gust 44 N/A N/A 99.9 13 84 10
2:00 SSE 37 gust 48 N/A N/A 99.8 13 83 10
1:00 SSE 42 gust 51 N/A N/A 99.8 13 80 10
0:00 SSE 43 gust 51 N/A N/A 99.9 13 80 10
21 October 2014
23:00 SSE 40 gust 49 N/A N/A 100.0 13 80 10
22:00 SSE 43 gust 51 N/A N/A 100.1 13 80 10
21:00 SSE 36 gust 43 N/A N/A 100.2 13 81 10
20:00 SSE 28 gust 33 N/A N/A 100.4 13 83 10
19:00 SSE 23 gust 28 N/A N/A 100.6 13 82 10
18:00 SSE 18 gust 24 N/A N/A 100.7 13 84 10
17:00 SSE 20 N/A N/A 100.7 13 86 11
16:00 SSE 18 N/A N/A 100.7 13 87 11
15:00 SSE 11 N/A N/A 100.8 13 85 10
14:00 S 8 N/A N/A 100.8 13 86 10
13:00 ESE 7 N/A N/A 100.9 12 90 10
12:00 SSE 7 N/A N/A 101.0 12 91 10
11:00 SSE 7 N/A N/A 101.0 12 91 10
10:00 SSE 8 N/A N/A 101.0 11 94 10
9:00 SSE 10 N/A N/A 100.9 11 94 10
8:00 ESE 5 N/A N/A 100.9 11 95 10
7:00 W 2 N/A N/A 100.9 11 97 10
6:00 WSW 6 N/A N/A 100.8 11 97 10
5:00 S 6 N/A N/A 100.8 11 97 11
 
Map of Pacific - South Coast marine weather areas Tsawwassen Ferry Terminal South Nomad - 46036 Sentry Shoal - 46131 South Brooks - 46132 Halibut Bank - 46146 South Moresby - 46147 South Hecate Strait - 46185 West Sea Otter - 46204 La Perouse Bank - 46206 East Dellwood - 46207 Discovery Island Esquimalt Harbour Kelp Reefs Malahat Race Rocks Lightstation Saturna Island Sheringham Point University of Victoria Victoria Gonzales Victoria Int'l Airport Ballenas Islands Campbell River Airport Comox Airport Entrance Island Fanny Island Nanaimo Airport Port Hardy Airport Sisters Islets Estevan Point Sartine Island Solander Island Tofino Airport Grief Point Powell River Airport Sechelt Cape St.James Bella Bella Airport Bella Coola Airport Cathedral Point Herbert Island Point Atkinson Sand Heads Lightstation Vancouver Harbour Vancouver Int'l Airport West Vancouver Port Alberni Howe Sound - Pam Rocks Squamish Airport